« Back
NWS Peachtree City, Ga » Text Product » ATL Terminal Aerodrome Forecast


Printer-friendly Version
Current Version              Previous Versions:   1  2  3  4  5  6  7  8  9  

Terminal Aerodrome Forecast

074
FTUS42 KFFC 222158 AAB
TAFATL
TAF AMD
KATL 222158Z 2222/2324 10007KT P6SM SCT045
     FM230000 09010KT P6SM BKN040
     FM230300 10008KT P6SM BKN025
     FM230800 08012KT 5SM -RA BR OVC008
     FM231400 09013G18KT 2SM SHRA BR OVC006 PROB30 2317/2320 2SM
      TSRA OVC015CB=

USA.gov is the U.S. government's official web portal to all federal, state and local government web resources and services.